createdAt,value
2022-08-17T00:01:31.441Z,20.28
2022-08-17T00:04:12.298Z,20.34
2022-08-17T00:06:39.040Z,20.30
2022-08-17T00:09:05.712Z,20.29
2022-08-17T00:11:37.041Z,20.12
2022-08-17T00:14:13.419Z,20.10
2022-08-17T00:16:55.516Z,20.06
2022-08-17T00:19:25.483Z,20.00
2022-08-17T00:22:30.781Z,20.16
2022-08-17T00:24:40.609Z,20.26
2022-08-17T00:27:08.383Z,20.24
2022-08-17T00:29:34.991Z,20.32
2022-08-17T00:32:02.071Z,20.26
2022-08-17T00:34:48.586Z,20.24
2022-08-17T00:37:15.149Z,20.24
2022-08-17T00:39:41.750Z,20.09
2022-08-17T00:42:16.978Z,20.10
2022-08-17T00:44:45.382Z,20.16
2022-08-17T00:47:11.933Z,20.15
2022-08-17T00:49:38.454Z,20.13
2022-08-17T00:52:15.315Z,20.02
2022-08-17T00:54:44.662Z,20.12
2022-08-17T00:57:20.725Z,20.01
2022-08-17T01:00:02.032Z,20.00
2022-08-17T01:02:34.370Z,20.04
2022-08-17T01:05:14.731Z,20.16
2022-08-17T01:07:42.747Z,20.16
2022-08-17T01:10:58.522Z,20.16
2022-08-17T01:12:59.862Z,20.16
2022-08-17T01:15:26.462Z,20.17
2022-08-17T01:17:53.062Z,20.17
2022-08-17T01:20:19.634Z,20.22
2022-08-17T01:22:46.252Z,20.30
2022-08-17T01:25:14.112Z,20.15
2022-08-17T01:27:41.746Z,19.96
2022-08-17T01:30:57.740Z,19.77
2022-08-17T01:32:58.045Z,19.98
2022-08-17T01:35:24.619Z,19.98
2022-08-17T01:37:51.166Z,19.92
2022-08-17T01:40:35.088Z,19.88
2022-08-17T01:43:11.938Z,20.05
2022-08-17T01:45:46.421Z,19.87
2022-08-17T01:48:13.835Z,19.74
2022-08-17T01:50:42.935Z,19.73
2022-08-17T01:53:15.190Z,19.73
2022-08-17T01:55:47.470Z,19.76
2022-08-17T01:58:14.099Z,19.73
2022-08-17T02:00:59.789Z,19.68
2022-08-17T02:03:28.430Z,19.58
2022-08-17T02:05:55.298Z,19.62
2022-08-17T02:08:37.229Z,19.75
2022-08-17T02:11:11.796Z,19.72
2022-08-17T02:13:38.942Z,19.76
2022-08-17T02:16:05.557Z,19.47
2022-08-17T02:18:32.234Z,19.45
2022-08-17T02:20:58.982Z,19.31
2022-08-17T02:23:28.587Z,19.32
2022-08-17T02:25:57.547Z,19.33
2022-08-17T02:28:24.099Z,19.41
2022-08-17T02:31:00.912Z,19.31
2022-08-17T02:33:41.693Z,19.36
2022-08-17T02:36:12.644Z,19.24
2022-08-17T02:38:40.561Z,19.19
2022-08-17T02:41:07.367Z,19.24
2022-08-17T02:43:34.849Z,19.39
2022-08-17T02:46:01.886Z,19.35
2022-08-17T02:48:31.304Z,19.24
2022-08-17T02:50:59.610Z,19.23
2022-08-17T02:53:26.940Z,19.16
2022-08-17T02:55:53.503Z,19.11
2022-08-17T02:58:34.754Z,19.03
2022-08-17T03:01:04.219Z,18.99
2022-08-17T03:03:30.809Z,19.20
2022-08-17T03:05:57.835Z,19.09
2022-08-17T03:08:25.326Z,19.03
2022-08-17T03:10:51.944Z,19.05
2022-08-17T03:13:18.559Z,19.12
2022-08-17T03:15:46.262Z,19.08
2022-08-17T03:18:18.926Z,18.94
2022-08-17T03:20:52.844Z,19.06
2022-08-17T03:23:23.618Z,19.08
2022-08-17T03:25:52.833Z,18.96
2022-08-17T03:28:20.079Z,18.95
2022-08-17T03:30:46.625Z,18.89
2022-08-17T03:33:13.677Z,18.94
2022-08-17T03:35:40.956Z,19.10
2022-08-17T03:38:10.124Z,19.13
2022-08-17T03:40:58.809Z,19.14
2022-08-17T03:43:23.824Z,19.13
2022-08-17T03:46:10.905Z,19.24
2022-08-17T03:49:12.948Z,19.34
2022-08-17T03:51:58.277Z,19.28
2022-08-17T03:54:43.611Z,19.13
2022-08-17T03:57:11.234Z,19.02
2022-08-17T03:59:38.706Z,19.01
2022-08-17T04:02:12.768Z,18.91
2022-08-17T04:04:39.811Z,18.89
2022-08-17T04:07:07.395Z,18.94
2022-08-17T04:09:34.938Z,18.88
2022-08-17T04:12:04.630Z,18.86
2022-08-17T04:14:39.346Z,18.64
2022-08-17T04:17:19.947Z,18.79
2022-08-17T04:19:46.941Z,18.85
2022-08-17T04:22:30.930Z,18.87
2022-08-17T04:25:06.925Z,18.91
2022-08-17T04:27:33.609Z,18.81
2022-08-17T04:30:00.887Z,18.80
2022-08-17T04:33:05.087Z,18.71
2022-08-17T04:35:18.367Z,18.67
2022-08-17T04:37:45.353Z,18.74
2022-08-17T04:40:30.802Z,18.92
2022-08-17T04:43:07.307Z,18.93
2022-08-17T04:45:34.321Z,19.03
2022-08-17T04:48:01.230Z,19.06
2022-08-17T04:50:27.945Z,19.03
2022-08-17T04:52:54.621Z,19.03
2022-08-17T04:55:21.519Z,19.02
2022-08-17T04:57:48.096Z,19.10
2022-08-17T05:00:14.880Z,19.10
2022-08-17T05:02:50.211Z,19.01
2022-08-17T05:05:24.870Z,19.16
2022-08-17T05:07:54.336Z,19.36
2022-08-17T05:10:25.466Z,19.28
2022-08-17T05:13:06.678Z,19.37
2022-08-17T05:15:37.943Z,19.67
2022-08-17T05:18:12.157Z,19.76
2022-08-17T05:20:40.016Z,19.96
2022-08-17T05:23:09.377Z,19.95
2022-08-17T05:25:42.255Z,20.07
2022-08-17T05:28:15.549Z,20.32
2022-08-17T05:30:44.679Z,20.39
2022-08-17T05:33:14.033Z,20.87
2022-08-17T05:35:43.962Z,21.30
2022-08-17T05:38:10.884Z,22.75
2022-08-17T05:40:38.239Z,23.06
2022-08-17T05:43:10.350Z,22.56
2022-08-17T05:45:55.390Z,23.20
2022-08-17T05:48:35.629Z,22.74
2022-08-17T05:51:44.156Z,22.47
2022-08-17T05:54:19.547Z,21.65
2022-08-17T05:56:57.981Z,21.65
2022-08-17T05:59:42.726Z,21.44
2022-08-17T06:02:29.727Z,21.43
2022-08-17T06:05:11.023Z,21.69
2022-08-17T06:07:43.365Z,22.44
2022-08-17T06:10:24.282Z,21.97
2022-08-17T06:13:05.490Z,21.84
2022-08-17T06:15:32.127Z,21.81
2022-08-17T06:18:07.812Z,22.24
2022-08-17T06:20:50.037Z,22.54
2022-08-17T06:23:35.949Z,22.36
2022-08-17T06:26:10.862Z,22.16
2022-08-17T06:28:43.584Z,22.13
2022-08-17T06:31:22.257Z,22.09
2022-08-17T06:33:49.978Z,22.13
2022-08-17T06:36:19.408Z,22.13
2022-08-17T06:39:16.331Z,22.33
2022-08-17T06:42:00.683Z,22.18
2022-08-17T06:44:43.631Z,22.02
2022-08-17T06:47:34.977Z,22.22
2022-08-17T06:50:27.236Z,22.43
2022-08-17T06:53:14.093Z,22.40
2022-08-17T06:56:04.965Z,22.51
2022-08-17T06:58:33.255Z,23.19
2022-08-17T07:01:09.606Z,22.86
2022-08-17T07:03:58.121Z,23.33
2022-08-17T07:06:29.595Z,23.16
2022-08-17T07:09:23.302Z,23.42
2022-08-17T07:11:52.971Z,23.31
2022-08-17T07:14:43.116Z,22.81
2022-08-17T07:17:15.735Z,23.02
2022-08-17T07:19:45.701Z,23.07
2022-08-17T07:23:01.807Z,23.01
2022-08-17T07:25:30.338Z,23.04
2022-08-17T07:28:00.280Z,23.33
2022-08-17T07:30:46.782Z,23.54
2022-08-17T07:33:19.810Z,23.58
2022-08-17T07:35:48.341Z,23.37
2022-08-17T07:38:27.680Z,23.30
2022-08-17T07:40:57.511Z,23.26
2022-08-17T07:43:36.669Z,23.62
2022-08-17T07:46:34.127Z,23.64
2022-08-17T07:49:03.685Z,24.15
2022-08-17T07:51:33.950Z,24.72
2022-08-17T07:54:14.236Z,24.40
2022-08-17T07:56:50.902Z,24.51
2022-08-17T07:59:24.071Z,24.50
2022-08-17T08:01:57.945Z,23.97
2022-08-17T08:04:59.803Z,24.24
2022-08-17T08:07:34.549Z,24.29
2022-08-17T08:10:15.110Z,23.72
2022-08-17T08:12:43.267Z,23.82
2022-08-17T08:15:25.982Z,23.74
2022-08-17T08:18:01.130Z,23.85
2022-08-17T08:20:55.014Z,23.99
2022-08-17T08:23:42.334Z,23.89
2022-08-17T08:26:30.414Z,23.67
2022-08-17T08:29:22.591Z,23.73
2022-08-17T08:32:05.738Z,23.76
2022-08-17T08:34:53.394Z,23.98
2022-08-17T08:37:51.356Z,24.57
2022-08-17T08:40:38.969Z,24.77
2022-08-17T08:43:22.791Z,24.46
2022-08-17T08:45:58.547Z,24.23
2022-08-17T08:48:58.117Z,24.08
2022-08-17T08:51:51.799Z,24.13
2022-08-17T08:54:37.016Z,24.41
2022-08-17T08:57:34.085Z,24.54
2022-08-17T09:00:37.957Z,24.26
2022-08-17T09:04:11.809Z,24.03
2022-08-17T09:06:51.298Z,23.88
2022-08-17T09:09:35.808Z,23.84
2022-08-17T09:12:21.222Z,23.71
2022-08-17T09:15:13.798Z,23.57
2022-08-17T09:18:08.530Z,23.35
2022-08-17T09:20:50.533Z,23.16
2022-08-17T09:23:32.361Z,23.36
2022-08-17T09:26:11.857Z,23.49
2022-08-17T09:28:44.179Z,23.94
2022-08-17T09:31:22.310Z,23.89
2022-08-17T09:33:49.487Z,24.18
2022-08-17T09:36:23.066Z,24.71
2022-08-17T09:39:11.054Z,25.36
2022-08-17T09:41:49.136Z,25.50
2022-08-17T09:44:31.800Z,25.11
2022-08-17T09:47:10.964Z,24.57
2022-08-17T09:49:49.407Z,25.02
2022-08-17T09:52:21.717Z,25.04
2022-08-17T09:54:51.364Z,25.07
2022-08-17T09:57:31.494Z,24.83
2022-08-17T10:00:25.057Z,25.45
2022-08-17T10:03:04.390Z,26.15
2022-08-17T10:05:46.350Z,26.68
2022-08-17T10:08:22.807Z,27.83
2022-08-17T10:11:19.830Z,28.02
2022-08-17T10:14:36.500Z,27.86
2022-08-17T10:17:50.657Z,28.26
2022-08-17T10:20:20.778Z,29.37
2022-08-17T10:23:13.003Z,29.40
2022-08-17T10:26:04.735Z,29.56
2022-08-17T10:28:47.717Z,29.98
2022-08-17T10:31:39.759Z,29.22
2022-08-17T10:34:21.905Z,29.67
2022-08-17T10:36:57.915Z,30.90
2022-08-17T10:39:52.589Z,30.62
2022-08-17T10:42:34.296Z,30.29
2022-08-17T10:45:18.125Z,28.28
2022-08-17T10:48:05.743Z,27.37
2022-08-17T10:50:54.969Z,28.86
2022-08-17T10:53:33.644Z,28.26
2022-08-17T10:56:12.421Z,27.58
2022-08-17T10:58:56.270Z,27.11
2022-08-17T11:01:43.778Z,26.90
2022-08-17T11:04:32.473Z,26.99
2022-08-17T11:07:13.565Z,26.10
2022-08-17T11:09:57.553Z,26.08
2022-08-17T11:12:40.048Z,26.00
2022-08-17T11:15:28.380Z,26.50
2022-08-17T11:18:10.037Z,25.98
2022-08-17T11:21:09.767Z,25.83
2022-08-17T11:24:01.346Z,26.17
2022-08-17T11:26:31.995Z,26.11
2022-08-17T11:29:18.398Z,25.72
2022-08-17T11:31:59.075Z,25.75
2022-08-17T11:34:28.822Z,25.85
2022-08-17T11:37:29.502Z,26.10
2022-08-17T11:40:15.062Z,26.95
2022-08-17T11:43:07.854Z,27.61
2022-08-17T11:45:53.694Z,27.68
2022-08-17T11:48:46.064Z,27.08
2022-08-17T11:51:47.055Z,27.97
2022-08-17T11:54:32.348Z,28.24
2022-08-17T11:57:21.442Z,28.10
2022-08-17T11:59:48.000Z,28.17
2022-08-17T12:02:34.350Z,30.11
2022-08-17T12:05:22.898Z,29.90
2022-08-17T12:07:57.186Z,29.65
2022-08-17T12:10:31.740Z,30.06
2022-08-17T12:13:02.146Z,30.52
2022-08-17T12:15:37.208Z,32.00
2022-08-17T12:18:04.088Z,33.71
2022-08-17T12:20:45.216Z,31.68
2022-08-17T12:23:50.155Z,31.22
2022-08-17T12:26:19.861Z,31.40
2022-08-17T12:28:57.407Z,29.99
2022-08-17T12:31:30.479Z,29.09
2022-08-17T12:33:57.634Z,28.23
2022-08-17T12:36:28.378Z,28.10
2022-08-17T12:39:14.042Z,27.69
2022-08-17T12:41:47.279Z,27.96
2022-08-17T12:44:21.317Z,27.98
2022-08-17T12:47:10.604Z,28.24
2022-08-17T12:49:39.430Z,28.07
2022-08-17T12:52:12.503Z,28.18
2022-08-17T12:55:02.621Z,29.22
2022-08-17T12:57:38.353Z,29.76
2022-08-17T13:00:16.200Z,29.95
2022-08-17T13:02:55.163Z,29.51
2022-08-17T13:05:29.533Z,28.99
2022-08-17T13:07:58.822Z,28.91
2022-08-17T13:10:33.179Z,28.25
2022-08-17T13:13:05.175Z,29.58
2022-08-17T13:15:44.872Z,30.21
2022-08-17T13:18:39.033Z,31.49
2022-08-17T13:21:18.782Z,32.81
2022-08-17T13:24:13.713Z,33.27
2022-08-17T13:26:44.242Z,33.22
2022-08-17T13:29:26.031Z,31.28
2022-08-17T13:31:56.422Z,30.97
2022-08-17T13:34:29.252Z,31.56
2022-08-17T13:37:28.796Z,31.90
2022-08-17T13:39:59.328Z,31.81
2022-08-17T13:42:33.637Z,32.35
2022-08-17T13:45:34.848Z,31.09
2022-08-17T13:48:14.340Z,30.39
2022-08-17T13:50:52.095Z,29.70
2022-08-17T13:53:40.222Z,29.39
2022-08-17T13:56:37.760Z,28.84
2022-08-17T13:59:01.899Z,28.94
2022-08-17T14:01:34.761Z,28.80
2022-08-17T14:04:05.340Z,28.89
2022-08-17T14:06:54.124Z,28.98
2022-08-17T14:09:24.735Z,28.97
2022-08-17T14:11:52.690Z,29.13
2022-08-17T14:14:20.202Z,29.07
2022-08-17T14:16:46.737Z,29.26
2022-08-17T14:19:14.619Z,29.41
2022-08-17T14:21:44.067Z,29.56
2022-08-17T14:24:26.298Z,29.91
2022-08-17T14:26:53.445Z,29.74
2022-08-17T14:29:21.703Z,29.47
2022-08-17T14:31:53.307Z,29.88
2022-08-17T14:34:22.726Z,29.56
2022-08-17T14:36:49.387Z,30.19
2022-08-17T14:39:17.173Z,30.11
2022-08-17T14:41:43.943Z,29.96
2022-08-17T14:44:12.506Z,29.98
2022-08-17T14:46:40.852Z,29.66
2022-08-17T14:49:08.808Z,29.18
2022-08-17T14:51:44.110Z,28.85
2022-08-17T14:54:32.849Z,28.93
2022-08-17T14:57:14.805Z,28.83
2022-08-17T14:59:46.931Z,28.94
2022-08-17T15:02:13.715Z,28.95
2022-08-17T15:04:45.360Z,29.21
2022-08-17T15:07:12.315Z,28.99
2022-08-17T15:09:39.063Z,28.89
2022-08-17T15:12:08.942Z,28.90
2022-08-17T15:14:35.758Z,28.77
2022-08-17T15:17:03.424Z,28.75
2022-08-17T15:19:29.984Z,28.84
2022-08-17T15:21:56.566Z,28.82
2022-08-17T15:24:23.158Z,28.80
2022-08-17T15:26:49.859Z,28.75
2022-08-17T15:29:16.405Z,28.89
2022-08-17T15:31:43.404Z,28.69
2022-08-17T15:34:09.954Z,28.74
2022-08-17T15:36:37.015Z,28.82
2022-08-17T15:39:05.405Z,28.74
2022-08-17T15:41:32.398Z,28.67
2022-08-17T15:43:59.080Z,28.62
2022-08-17T15:46:26.583Z,28.58
2022-08-17T15:48:58.114Z,28.43
2022-08-17T15:51:30.241Z,28.60
2022-08-17T15:53:58.329Z,28.49
2022-08-17T15:56:26.038Z,28.64
2022-08-17T15:58:54.746Z,28.52
2022-08-17T16:02:27.728Z,28.55
2022-08-17T16:04:29.884Z,28.74
2022-08-17T16:06:58.086Z,28.87
2022-08-17T16:09:24.687Z,28.53
2022-08-17T16:11:51.962Z,28.59
2022-08-17T16:14:21.582Z,28.84
2022-08-17T16:16:49.660Z,28.87
2022-08-17T16:19:16.194Z,28.94
2022-08-17T16:21:43.356Z,28.78
2022-08-17T16:24:13.275Z,28.75
2022-08-17T16:26:40.433Z,28.83
2022-08-17T16:29:07.325Z,28.96
2022-08-17T16:31:34.344Z,29.21
2022-08-17T16:34:17.745Z,29.21
2022-08-17T16:36:53.694Z,29.12
2022-08-17T16:39:27.506Z,29.09
2022-08-17T16:41:55.810Z,28.97
2022-08-17T16:44:22.510Z,29.03
2022-08-17T16:46:50.226Z,28.76
2022-08-17T16:49:35.195Z,28.69
2022-08-17T16:52:06.785Z,28.48
2022-08-17T16:54:33.442Z,28.76
2022-08-17T16:57:00.185Z,28.72
2022-08-17T16:59:30.386Z,28.72
2022-08-17T17:02:04.720Z,28.62
2022-08-17T17:04:34.997Z,28.62
2022-08-17T17:07:18.177Z,28.69
2022-08-17T17:09:47.953Z,28.61
2022-08-17T17:12:18.753Z,28.51
2022-08-17T17:15:02.153Z,28.60
2022-08-17T17:17:32.861Z,28.52
2022-08-17T17:20:19.331Z,28.59
2022-08-17T17:22:51.974Z,28.68
2022-08-17T17:25:28.185Z,28.64
2022-08-17T17:28:24.939Z,28.59
2022-08-17T17:31:05.743Z,28.37
2022-08-17T17:33:56.868Z,28.48
2022-08-17T17:36:33.161Z,28.29
2022-08-17T17:39:05.275Z,28.26
2022-08-17T17:41:50.537Z,28.26
2022-08-17T17:44:24.239Z,28.21
2022-08-17T17:46:54.156Z,28.11
2022-08-17T17:49:21.165Z,28.11
2022-08-17T17:52:14.243Z,28.08
2022-08-17T17:55:18.236Z,27.98
2022-08-17T17:57:55.688Z,27.93
2022-08-17T18:00:25.535Z,27.88
2022-08-17T18:03:32.621Z,27.86
2022-08-17T18:06:08.052Z,27.75
2022-08-17T18:09:00.018Z,27.77
2022-08-17T18:11:37.037Z,27.68
2022-08-17T18:14:14.713Z,27.65
2022-08-17T18:16:43.374Z,27.59
2022-08-17T18:19:15.391Z,27.44
2022-08-17T18:21:45.807Z,27.38
2022-08-17T18:24:13.953Z,27.26
2022-08-17T18:26:58.663Z,27.12
2022-08-17T18:29:28.131Z,26.83
2022-08-17T18:32:28.441Z,26.62
2022-08-17T18:35:18.248Z,26.46
2022-08-17T18:37:46.613Z,26.21
2022-08-17T18:40:16.332Z,26.20
2022-08-17T18:42:46.260Z,26.35
2022-08-17T18:45:29.977Z,26.35
2022-08-17T18:47:57.436Z,26.18
2022-08-17T18:50:25.287Z,25.83
2022-08-17T18:52:52.018Z,25.64
2022-08-17T18:55:24.472Z,25.62
2022-08-17T18:57:53.486Z,25.60
2022-08-17T19:00:38.114Z,25.40
2022-08-17T19:03:17.888Z,25.15
2022-08-17T19:05:56.862Z,25.07
2022-08-17T19:08:29.470Z,25.00
2022-08-17T19:11:01.097Z,24.90
2022-08-17T19:13:41.543Z,24.92
2022-08-17T19:16:20.014Z,24.96
2022-08-17T19:18:54.300Z,24.75
2022-08-17T19:21:47.997Z,24.73
2022-08-17T19:24:20.323Z,24.70
2022-08-17T19:27:00.002Z,24.73
2022-08-17T19:29:37.158Z,24.90
2022-08-17T19:32:06.420Z,24.78
2022-08-17T19:34:35.593Z,24.68
2022-08-17T19:37:23.902Z,24.80
2022-08-17T19:40:06.678Z,24.92
2022-08-17T19:42:51.990Z,24.94
2022-08-17T19:45:58.216Z,24.92
2022-08-17T19:48:45.372Z,24.77
2022-08-17T19:51:35.812Z,24.57
2022-08-17T19:54:20.303Z,24.34
2022-08-17T19:57:05.790Z,24.58
2022-08-17T19:59:50.706Z,24.53
2022-08-17T20:02:20.239Z,24.35
2022-08-17T20:04:49.435Z,24.55
2022-08-17T20:07:23.535Z,24.53
2022-08-17T20:09:58.223Z,24.41
2022-08-17T20:12:33.778Z,24.13
2022-08-17T20:15:12.088Z,23.96
2022-08-17T20:17:42.291Z,23.86
2022-08-17T20:20:37.497Z,23.87
2022-08-17T20:23:12.354Z,23.90
2022-08-17T20:25:47.367Z,23.83
2022-08-17T20:28:27.820Z,23.61
2022-08-17T20:31:02.465Z,23.44
2022-08-17T20:33:36.095Z,23.33
2022-08-17T20:36:16.917Z,23.30
2022-08-17T20:38:48.206Z,23.19
2022-08-17T20:41:16.594Z,23.16
2022-08-17T20:43:50.746Z,23.09
2022-08-17T20:46:30.173Z,23.13
2022-08-17T20:49:14.000Z,23.24
2022-08-17T20:52:00.654Z,23.20
2022-08-17T20:54:53.670Z,23.19
2022-08-17T20:57:40.413Z,23.20
2022-08-17T21:00:15.503Z,23.22
2022-08-17T21:03:23.138Z,23.09
2022-08-17T21:06:17.104Z,22.90
2022-08-17T21:08:57.805Z,22.84
2022-08-17T21:12:02.640Z,22.69
2022-08-17T21:14:32.748Z,22.82
2022-08-17T21:17:02.396Z,22.96
2022-08-17T21:20:12.794Z,22.66
2022-08-17T21:22:58.473Z,22.55
2022-08-17T21:25:49.021Z,22.52
2022-08-17T21:28:15.518Z,22.56
2022-08-17T21:31:09.678Z,22.51
2022-08-17T21:33:38.860Z,22.59
2022-08-17T21:36:11.754Z,22.63
2022-08-17T21:38:47.570Z,22.51
2022-08-17T21:41:27.507Z,22.57
2022-08-17T21:44:02.726Z,22.47
2022-08-17T21:46:36.894Z,22.51
2022-08-17T21:49:13.424Z,22.50
2022-08-17T21:52:07.108Z,22.44
2022-08-17T21:54:42.463Z,22.43
2022-08-17T21:57:16.716Z,22.33
2022-08-17T21:59:44.472Z,22.22
2022-08-17T22:02:20.226Z,22.28
2022-08-17T22:05:02.075Z,22.18
2022-08-17T22:07:36.095Z,22.21
2022-08-17T22:10:04.931Z,22.28
2022-08-17T22:12:31.581Z,22.33
2022-08-17T22:15:04.049Z,22.35
2022-08-17T22:17:35.282Z,22.66
2022-08-17T22:20:09.462Z,22.59
2022-08-17T22:22:59.785Z,22.66
2022-08-17T22:25:28.235Z,22.49
2022-08-17T22:28:03.620Z,22.54
2022-08-17T22:30:30.299Z,22.47
2022-08-17T22:32:57.599Z,22.46
2022-08-17T22:35:37.754Z,22.40
2022-08-17T22:38:19.524Z,22.69
2022-08-17T22:40:53.535Z,22.46
2022-08-17T22:43:25.976Z,22.30
2022-08-17T22:45:55.721Z,22.28
2022-08-17T22:48:27.292Z,22.21
2022-08-17T22:51:12.882Z,22.41
2022-08-17T22:54:07.992Z,22.21
2022-08-17T22:56:53.970Z,21.97
2022-08-17T22:59:45.788Z,21.90
2022-08-17T23:02:19.091Z,21.81
2022-08-17T23:05:11.643Z,21.76
2022-08-17T23:07:39.251Z,21.81
2022-08-17T23:10:09.510Z,21.81
2022-08-17T23:12:39.646Z,21.71
2022-08-17T23:15:16.912Z,21.43
2022-08-17T23:17:45.293Z,21.58
2022-08-17T23:20:15.340Z,21.43
2022-08-17T23:22:51.431Z,21.20
2022-08-17T23:25:25.746Z,21.37
2022-08-17T23:27:52.531Z,21.47
2022-08-17T23:30:19.376Z,21.44
2022-08-17T23:32:53.845Z,21.57
2022-08-17T23:35:40.335Z,21.64
2022-08-17T23:38:12.602Z,21.56
2022-08-17T23:40:40.243Z,21.49
2022-08-17T23:43:17.591Z,21.44
2022-08-17T23:45:54.110Z,21.25
2022-08-17T23:48:36.314Z,21.31
2022-08-17T23:51:13.843Z,21.33
2022-08-17T23:53:47.519Z,21.30
2022-08-17T23:56:14.980Z,21.22
2022-08-17T23:58:43.166Z,21.23
